MiSS Stacie — WDF5915 — position and weather

sailwx.info

Track history (hours):
 
Tides and Currents Weather Stations Pressure Air Temp Water Temp Dewpoint Dewpoint Depression Visibility Wind Speed Wind Dir Waves Ship Positions

MiSS Stacie

Owner: Crosby Marine Transportation LLC, Golden Meadow, LA. More information available from US FCC via Universal Licensing System and Coast Guard Vessel Documentation Center.

Last reported at 2014-Dec-20 17:33 UTC. Time now 2014-Dec-21 17:18 UTC.
Position N 29°37' W 091°03'.

Length 20 m; draft 2 m.

Type: Tug. MMSI: 367468640.

Date/timePositionNaut miles runAvg speedWind from/ knotsBaromVisibWave heightAir tempDewpointWater temp
2014-Dec-20 17:33N 29°37' W 091°03'6 5.8
2014-Dec-20 16:33N 29°41' W 091°09'5 4.6
2014-Dec-20 15:33N 29°40' W 091°14'2 2.0
2014-Dec-20 14:33N 29°41' W 091°12'2 2.5
2014-Dec-20 13:33N 29°41' W 091°09'6 5.6
2014-Dec-20 12:33N 29°37' W 091°04'6 5.6
2014-Dec-20 11:33N 29°35' W 090°58'7 6.2
2014-Dec-20 10:28N 29°32' W 090°51'44 4.9
2014-Dec-20 01:26N 29°48' W 090°04'5 5.7
2014-Dec-20 00:33N 29°53' W 090°04'2 1.7
2014-Dec-19 23:30N 29°55' W 090°05'4 4.0
2014-Dec-19 22:30N 29°57' W 090°01'1 1.2
2014-Dec-19 21:33N 29°56' W 089°60'3 0.2
2014-Dec-19 10:05N 29°54' W 089°60'2 2.7
2014-Dec-19 09:26N 29°55' W 089°58'0 0.1
2014-Dec-19 08:20N 29°55' W 089°58'2 3.0
2014-Dec-19 07:33N 29°57' W 090°00'4 0.2
2014-Dec-18 09:04N 29°53' W 090°00'3 4.3
2014-Dec-18 08:28N 29°55' W 089°58'2 2.5
2014-Dec-18 07:32N 29°57' W 090°00'0 0.1
2014-Dec-18 06:26N 29°57' W 090°00'2 1.6
2014-Dec-18 05:03N 29°55' W 089°59'0 0.2
2014-Dec-18 04:33N 29°55' W 089°59'0 0.2
2014-Dec-18 01:20N 29°54' W 089°59'7 0.6
2014-Dec-17 12:30N 29°49' W 090°04'52 1.3
2014-Dec-15 20:16N 29°37' W 091°02'4 5.3
2014-Dec-15 19:33N 29°38' W 091°07'5 4.5
2014-Dec-15 18:33N 29°41' W 091°11'3 2.9
2014-Dec-15 17:34N 29°40' W 091°14'0 0.3
2014-Dec-15 16:34N 29°40' W 091°14'7 6.8
2014-Dec-15 15:33N 29°39' W 091°22'9 6.2
2014-Dec-15 14:07N 29°42' W 091°31'4 5.5
2014-Dec-15 13:29N 29°44' W 091°34'11 0.7
2014-Dec-14 21:33N 29°39' W 091°23'7 7.4
2014-Dec-14 20:34N 29°40' W 091°15'1 1.0
2014-Dec-14 19:34N 29°40' W 091°14'0 0.1
2014-Dec-14 18:34N 29°40' W 091°14'4 4.1
2014-Dec-14 17:34N 29°39' W 091°18'6 5.7
2014-Dec-14 16:33N 29°39' W 091°25'6 5.9
2014-Dec-14 15:31N 29°42' W 091°31'6 6.0
2014-Dec-14 14:33N 29°46' W 091°36'3 1.7
2014-Dec-14 12:29N 29°48' W 091°34'0 0.0
2014-Dec-14 11:08N 29°48' W 091°34'9 0.9
2014-Dec-14 01:32N 29°41' W 091°28'7 7.0
2014-Dec-14 00:33N 29°39' W 091°21'6 6.3
2014-Dec-13 23:34N 29°40' W 091°14'0 0.0
2014-Dec-13 22:34N 29°40' W 091°14'0 0.0
2014-Dec-13 21:34N 29°40' W 091°14'0 0.0
2014-Dec-13 20:34N 29°40' W 091°14'0 0.0
2014-Dec-13 19:33N 29°40' W 091°14'0 0.0
2014-Dec-13 18:34N 29°40' W 091°14'0 0.0
2014-Dec-13 17:33N 29°40' W 091°14'0 0.0
2014-Dec-13 16:33N 29°40' W 091°14'0 0.0
2014-Dec-13 15:33N 29°40' W 091°14'0 0.0
2014-Dec-13 14:33N 29°40' W 091°14'0 0.0
2014-Dec-13 13:33N 29°40' W 091°14'0 0.0
2014-Dec-13 12:33N 29°40' W 091°14'0 0.0
2014-Dec-13 11:33N 29°40' W 091°14'0 0.0
2014-Dec-13 10:33N 29°40' W 091°14'0 0.0
2014-Dec-13 09:33N 29°40' W 091°14'0 0.0
2014-Dec-13 08:33N 29°40' W 091°14'0 0.0
2014-Dec-13 07:33N 29°40' W 091°14'0 0.0
2014-Dec-13 06:33N 29°40' W 091°14'0 0.0
2014-Dec-13 05:33N 29°40' W 091°14'0 0.0
2014-Dec-13 04:33N 29°40' W 091°14'0 0.0
2014-Dec-13 03:33N 29°40' W 091°14'0 0.0
2014-Dec-13 02:33N 29°40' W 091°14'0 0.0
2014-Dec-13 01:33N 29°40' W 091°14'5 5.1
2014-Dec-13 00:33N 29°38' W 091°19'1 0.6
2014-Dec-12 23:33N 29°38' W 091°19'5 4.6
2014-Dec-12 22:33N 29°40' W 091°14'3 3.3
2014-Dec-12 21:33N 29°41' W 091°10'3 3.4
2014-Dec-12 20:33N 29°39' W 091°07'8 6.0
2014-Dec-12 19:15N 29°37' W 090°59'55 4.3
2014-Dec-12 06:26N 29°54' W 089°59'1 1.0
2014-Dec-12 05:10N 29°55' W 089°58'0 0.0
2014-Dec-12 04:30N 29°55' W 089°58'0 0.0
2014-Dec-12 03:24N 29°55' W 089°58'0 0.0
2014-Dec-12 02:25N 29°55' W 089°58'0 0.0
2014-Dec-12 01:30N 29°55' W 089°58'2 2.2
2014-Dec-12 00:28N 29°57' W 090°00'1 1.0
2014-Dec-11 23:33N 29°57' W 090°01'4 4.3
2014-Dec-11 22:32N 29°54' W 090°05'5 4.9
2014-Dec-11 21:33N 29°49' W 090°04'8 0.6
2014-Dec-11 08:29N 29°56' W 089°60'6 0.6
2014-Dec-10 21:09N 29°50' W 090°02'  
Track history (hours):
 
Tides and Currents Weather Stations Pressure Air Temp Water Temp Dewpoint Dewpoint Depression Visibility Wind Speed Wind Dir Waves Ship Positions

MiSS Stacie

Owner: Crosby Marine Transportation LLC, Golden Meadow, LA. More information available from US FCC via Universal Licensing System and Coast Guard Vessel Documentation Center.

Last reported at 2014-Dec-20 17:33 UTC. Time now 2014-Dec-21 17:18 UTC.
Position N 29°37' W 091°03'.

Length 20 m; draft 2 m.

Type: Tug. MMSI: 367468640.

Date/timePositionNaut miles runAvg speedWind from/ knotsBaromVisibWave heightAir tempDewpointWater temp
2014-Dec-20 17:33N 29°37' W 091°03'6 5.8
2014-Dec-20 16:33N 29°41' W 091°09'5 4.6
2014-Dec-20 15:33N 29°40' W 091°14'2 2.0
2014-Dec-20 14:33N 29°41' W 091°12'2 2.5
2014-Dec-20 13:33N 29°41' W 091°09'6 5.6
2014-Dec-20 12:33N 29°37' W 091°04'6 5.6
2014-Dec-20 11:33N 29°35' W 090°58'7 6.2
2014-Dec-20 10:28N 29°32' W 090°51'44 4.9
2014-Dec-20 01:26N 29°48' W 090°04'5 5.7
2014-Dec-20 00:33N 29°53' W 090°04'2 1.7
2014-Dec-19 23:30N 29°55' W 090°05'4 4.0
2014-Dec-19 22:30N 29°57' W 090°01'1 1.2
2014-Dec-19 21:33N 29°56' W 089°60'3 0.2
2014-Dec-19 10:05N 29°54' W 089°60'2 2.7
2014-Dec-19 09:26N 29°55' W 089°58'0 0.1
2014-Dec-19 08:20N 29°55' W 089°58'2 3.0
2014-Dec-19 07:33N 29°57' W 090°00'4 0.2
2014-Dec-18 09:04N 29°53' W 090°00'3 4.3
2014-Dec-18 08:28N 29°55' W 089°58'2 2.5
2014-Dec-18 07:32N 29°57' W 090°00'0 0.1
2014-Dec-18 06:26N 29°57' W 090°00'2 1.6
2014-Dec-18 05:03N 29°55' W 089°59'0 0.2
2014-Dec-18 04:33N 29°55' W 089°59'0 0.2
2014-Dec-18 01:20N 29°54' W 089°59'7 0.6
2014-Dec-17 12:30N 29°49' W 090°04'52 1.3
2014-Dec-15 20:16N 29°37' W 091°02'4 5.3
2014-Dec-15 19:33N 29°38' W 091°07'5 4.5
2014-Dec-15 18:33N 29°41' W 091°11'3 2.9
2014-Dec-15 17:34N 29°40' W 091°14'0 0.3
2014-Dec-15 16:34N 29°40' W 091°14'7 6.8
2014-Dec-15 15:33N 29°39' W 091°22'9 6.2
2014-Dec-15 14:07N 29°42' W 091°31'4 5.5
2014-Dec-15 13:29N 29°44' W 091°34'11 0.7
2014-Dec-14 21:33N 29°39' W 091°23'7 7.4
2014-Dec-14 20:34N 29°40' W 091°15'1 1.0
2014-Dec-14 19:34N 29°40' W 091°14'0 0.1
2014-Dec-14 18:34N 29°40' W 091°14'4 4.1
2014-Dec-14 17:34N 29°39' W 091°18'6 5.7
2014-Dec-14 16:33N 29°39' W 091°25'6 5.9
2014-Dec-14 15:31N 29°42' W 091°31'6 6.0
2014-Dec-14 14:33N 29°46' W 091°36'3 1.7
2014-Dec-14 12:29N 29°48' W 091°34'0 0.0
2014-Dec-14 11:08N 29°48' W 091°34'9 0.9
2014-Dec-14 01:32N 29°41' W 091°28'7 7.0
2014-Dec-14 00:33N 29°39' W 091°21'6 6.3
2014-Dec-13 23:34N 29°40' W 091°14'0 0.0
2014-Dec-13 22:34N 29°40' W 091°14'0 0.0
2014-Dec-13 21:34N 29°40' W 091°14'0 0.0
2014-Dec-13 20:34N 29°40' W 091°14'0 0.0
2014-Dec-13 19:33N 29°40' W 091°14'0 0.0
2014-Dec-13 18:34N 29°40' W 091°14'0 0.0
2014-Dec-13 17:33N 29°40' W 091°14'0 0.0
2014-Dec-13 16:33N 29°40' W 091°14'0 0.0
2014-Dec-13 15:33N 29°40' W 091°14'0 0.0
2014-Dec-13 14:33N 29°40' W 091°14'0 0.0
2014-Dec-13 13:33N 29°40' W 091°14'0 0.0
2014-Dec-13 12:33N 29°40' W 091°14'0 0.0
2014-Dec-13 11:33N 29°40' W 091°14'0 0.0
2014-Dec-13 10:33N 29°40' W 091°14'0 0.0
2014-Dec-13 09:33N 29°40' W 091°14'0 0.0
2014-Dec-13 08:33N 29°40' W 091°14'0 0.0
2014-Dec-13 07:33N 29°40' W 091°14'0 0.0
2014-Dec-13 06:33N 29°40' W 091°14'0 0.0
2014-Dec-13 05:33N 29°40' W 091°14'0 0.0
2014-Dec-13 04:33N 29°40' W 091°14'0 0.0
2014-Dec-13 03:33N 29°40' W 091°14'0 0.0
2014-Dec-13 02:33N 29°40' W 091°14'0 0.0
2014-Dec-13 01:33N 29°40' W 091°14'5 5.1
2014-Dec-13 00:33N 29°38' W 091°19'1 0.6
2014-Dec-12 23:33N 29°38' W 091°19'5 4.6
2014-Dec-12 22:33N 29°40' W 091°14'3 3.3
2014-Dec-12 21:33N 29°41' W 091°10'3 3.4
2014-Dec-12 20:33N 29°39' W 091°07'8 6.0
2014-Dec-12 19:15N 29°37' W 090°59'55 4.3
2014-Dec-12 06:26N 29°54' W 089°59'1 1.0
2014-Dec-12 05:10N 29°55' W 089°58'0 0.0
2014-Dec-12 04:30N 29°55' W 089°58'0 0.0
2014-Dec-12 03:24N 29°55' W 089°58'0 0.0
2014-Dec-12 02:25N 29°55' W 089°58'0 0.0
2014-Dec-12 01:30N 29°55' W 089°58'2 2.2
2014-Dec-12 00:28N 29°57' W 090°00'1 1.0
2014-Dec-11 23:33N 29°57' W 090°01'4 4.3
2014-Dec-11 22:32N 29°54' W 090°05'5 4.9
2014-Dec-11 21:33N 29°49' W 090°04'8 0.6
2014-Dec-11 08:29N 29°56' W 089°60'6 0.6
2014-Dec-10 21:09N 29°50' W 090°02'  

Dump ship's entire track history